sensor_id;sensor_type;location;lat;lon;timestamp;P1;durP1;ratioP1;P2;durP2;ratioP2
19623;SDS011;9959;49.798;9.928;2023-11-19T00:01:08;19.00;;;9.05;;
19623;SDS011;9959;49.798;9.928;2023-11-19T00:03:35;15.82;;;7.90;;
19623;SDS011;9959;49.798;9.928;2023-11-19T00:06:02;18.45;;;8.32;;
19623;SDS011;9959;49.798;9.928;2023-11-19T00:08:31;16.65;;;8.50;;
19623;SDS011;9959;49.798;9.928;2023-11-19T00:10:58;15.60;;;8.60;;
19623;SDS011;9959;49.798;9.928;2023-11-19T00:13:24;16.50;;;8.48;;
19623;SDS011;9959;49.798;9.928;2023-11-19T00:15:52;15.90;;;8.13;;
19623;SDS011;9959;49.798;9.928;2023-11-19T00:18:19;13.27;;;7.63;;
19623;SDS011;9959;49.798;9.928;2023-11-19T00:20:47;16.63;;;8.00;;
19623;SDS011;9959;49.798;9.928;2023-11-19T00:23:14;17.02;;;7.57;;
19623;SDS011;9959;49.798;9.928;2023-11-19T00:25:41;18.27;;;8.00;;
19623;SDS011;9959;49.798;9.928;2023-11-19T00:28:08;13.67;;;8.00;;
19623;SDS011;9959;49.798;9.928;2023-11-19T00:30:35;17.17;;;7.53;;
19623;SDS011;9959;49.798;9.928;2023-11-19T00:33:01;13.70;;;7.63;;
19623;SDS011;9959;49.798;9.928;2023-11-19T00:35:28;16.45;;;7.80;;
19623;SDS011;9959;49.798;9.928;2023-11-19T00:37:55;15.45;;;7.95;;
19623;SDS011;9959;49.798;9.928;2023-11-19T00:40:22;15.00;;;8.02;;
19623;SDS011;9959;49.798;9.928;2023-11-19T00:42:49;21.10;;;8.18;;
19623;SDS011;9959;49.798;9.928;2023-11-19T00:45:16;16.10;;;8.20;;
19623;SDS011;9959;49.798;9.928;2023-11-19T00:47:43;13.45;;;7.75;;
19623;SDS011;9959;49.798;9.928;2023-11-19T00:50:10;16.42;;;7.63;;
19623;SDS011;9959;49.798;9.928;2023-11-19T00:52:38;13.20;;;8.30;;
19623;SDS011;9959;49.798;9.928;2023-11-19T00:55:05;14.15;;;7.78;;
19623;SDS011;9959;49.798;9.928;2023-11-19T00:57:34;14.63;;;7.85;;
19623;SDS011;9959;49.798;9.928;2023-11-19T01:00:02;11.55;;;7.05;;
19623;SDS011;9959;49.798;9.928;2023-11-19T01:02:36;15.40;;;8.55;;
19623;SDS011;9959;49.798;9.928;2023-11-19T01:05:03;15.90;;;8.45;;
19623;SDS011;9959;49.798;9.928;2023-11-19T01:07:30;15.95;;;8.63;;
19623;SDS011;9959;49.798;9.928;2023-11-19T01:09:57;17.33;;;8.23;;
19623;SDS011;9959;49.798;9.928;2023-11-19T01:12:24;15.82;;;8.23;;
19623;SDS011;9959;49.798;9.928;2023-11-19T01:14:51;17.17;;;8.55;;
19623;SDS011;9959;49.798;9.928;2023-11-19T01:17:18;13.27;;;7.72;;
19623;SDS011;9959;49.798;9.928;2023-11-19T01:19:45;13.80;;;7.90;;
19623;SDS011;9959;49.798;9.928;2023-11-19T01:22:12;12.80;;;7.43;;
19623;SDS011;9959;49.798;9.928;2023-11-19T01:24:39;13.15;;;8.18;;
19623;SDS011;9959;49.798;9.928;2023-11-19T01:27:06;12.13;;;7.72;;
19623;SDS011;9959;49.798;9.928;2023-11-19T01:29:32;14.02;;;7.85;;
19623;SDS011;9959;49.798;9.928;2023-11-19T01:31:59;16.65;;;8.00;;
19623;SDS011;9959;49.798;9.928;2023-11-19T01:34:26;16.80;;;8.07;;
19623;SDS011;9959;49.798;9.928;2023-11-19T01:36:53;13.55;;;8.27;;
19623;SDS011;9959;49.798;9.928;2023-11-19T01:39:20;13.63;;;8.13;;
19623;SDS011;9959;49.798;9.928;2023-11-19T01:41:47;17.23;;;9.10;;
19623;SDS011;9959;49.798;9.928;2023-11-19T01:44:14;15.32;;;8.43;;
19623;SDS011;9959;49.798;9.928;2023-11-19T01:46:42;18.25;;;8.88;;
19623;SDS011;9959;49.798;9.928;2023-11-19T01:49:14;16.30;;;9.10;;
19623;SDS011;9959;49.798;9.928;2023-11-19T01:51:42;18.05;;;8.77;;
19623;SDS011;9959;49.798;9.928;2023-11-19T01:54:09;13.82;;;8.35;;
19623;SDS011;9959;49.798;9.928;2023-11-19T01:56:37;14.27;;;7.90;;
19623;SDS011;9959;49.798;9.928;2023-11-19T01:59:07;15.32;;;9.15;;
19623;SDS011;9959;49.798;9.928;2023-11-19T02:01:37;16.23;;;8.27;;
19623;SDS011;9959;49.798;9.928;2023-11-19T02:04:07;15.73;;;7.60;;
19623;SDS011;9959;49.798;9.928;2023-11-19T02:06:37;18.00;;;8.35;;
19623;SDS011;9959;49.798;9.928;2023-11-19T02:09:09;11.48;;;7.22;;
19623;SDS011;9959;49.798;9.928;2023-11-19T02:11:36;11.15;;;7.03;;
19623;SDS011;9959;49.798;9.928;2023-11-19T02:14:06;11.85;;;7.55;;
19623;SDS011;9959;49.798;9.928;2023-11-19T02:16:33;13.70;;;7.22;;
19623;SDS011;9959;49.798;9.928;2023-11-19T02:19:01;10.68;;;7.10;;
19623;SDS011;9959;49.798;9.928;2023-11-19T02:21:28;11.60;;;6.47;;
19623;SDS011;9959;49.798;9.928;2023-11-19T02:23:55;11.88;;;6.95;;
19623;SDS011;9959;49.798;9.928;2023-11-19T02:27:24;10.77;;;6.22;;
19623;SDS011;9959;49.798;9.928;2023-11-19T02:29:47;11.63;;;5.75;;
19623;SDS011;9959;49.798;9.928;2023-11-19T02:32:15;10.32;;;5.85;;
19623;SDS011;9959;49.798;9.928;2023-11-19T02:34:42;8.32;;;4.55;;
19623;SDS011;9959;49.798;9.928;2023-11-19T02:37:09;8.45;;;4.05;;
19623;SDS011;9959;49.798;9.928;2023-11-19T02:39:36;5.05;;;3.72;;
19623;SDS011;9959;49.798;9.928;2023-11-19T02:42:03;6.88;;;3.65;;
19623;SDS011;9959;49.798;9.928;2023-11-19T02:44:30;6.18;;;3.33;;
19623;SDS011;9959;49.798;9.928;2023-11-19T02:46:57;4.20;;;2.97;;
19623;SDS011;9959;49.798;9.928;2023-11-19T02:49:26;4.05;;;2.75;;
19623;SDS011;9959;49.798;9.928;2023-11-19T02:51:52;3.88;;;2.85;;
19623;SDS011;9959;49.798;9.928;2023-11-19T02:54:19;3.85;;;2.40;;
19623;SDS011;9959;49.798;9.928;2023-11-19T02:56:47;4.28;;;2.40;;
19623;SDS011;9959;49.798;9.928;2023-11-19T02:59:21;2.78;;;2.35;;
19623;SDS011;9959;49.798;9.928;2023-11-19T03:01:54;3.55;;;2.22;;
19623;SDS011;9959;49.798;9.928;2023-11-19T03:04:21;2.70;;;2.22;;
19623;SDS011;9959;49.798;9.928;2023-11-19T03:06:49;4.28;;;2.25;;
19623;SDS011;9959;49.798;9.928;2023-11-19T03:09:16;4.55;;;2.33;;
19623;SDS011;9959;49.798;9.928;2023-11-19T03:11:43;3.22;;;2.33;;
19623;SDS011;9959;49.798;9.928;2023-11-19T03:14:10;1.98;;;1.77;;
19623;SDS011;9959;49.798;9.928;2023-11-19T03:16:37;3.47;;;1.88;;
19623;SDS011;9959;49.798;9.928;2023-11-19T03:19:04;2.63;;;2.00;;
19623;SDS011;9959;49.798;9.928;2023-11-19T03:21:31;2.95;;;1.85;;
19623;SDS011;9959;49.798;9.928;2023-11-19T03:23:58;3.42;;;2.10;;
19623;SDS011;9959;49.798;9.928;2023-11-19T03:26:28;2.30;;;1.80;;
19623;SDS011;9959;49.798;9.928;2023-11-19T03:28:55;3.58;;;1.80;;
19623;SDS011;9959;49.798;9.928;2023-11-19T03:31:23;1.75;;;1.50;;
19623;SDS011;9959;49.798;9.928;2023-11-19T03:33:51;1.73;;;1.60;;
19623;SDS011;9959;49.798;9.928;2023-11-19T03:36:20;1.58;;;1.42;;
19623;SDS011;9959;49.798;9.928;2023-11-19T03:38:47;1.40;;;1.30;;
19623;SDS011;9959;49.798;9.928;2023-11-19T03:41:14;1.90;;;1.45;;
19623;SDS011;9959;49.798;9.928;2023-11-19T03:43:42;2.33;;;1.50;;
19623;SDS011;9959;49.798;9.928;2023-11-19T03:46:18;1.95;;;1.35;;
19623;SDS011;9959;49.798;9.928;2023-11-19T03:48:47;1.83;;;1.52;;
19623;SDS011;9959;49.798;9.928;2023-11-19T03:51:14;1.70;;;1.60;;
19623;SDS011;9959;49.798;9.928;2023-11-19T03:53:43;1.77;;;1.52;;
19623;SDS011;9959;49.798;9.928;2023-11-19T03:56:13;2.67;;;1.63;;
19623;SDS011;9959;49.798;9.928;2023-11-19T03:58:40;1.60;;;1.50;;
19623;SDS011;9959;49.798;9.928;2023-11-19T04:01:10;2.20;;;1.73;;
19623;SDS011;9959;49.798;9.928;2023-11-19T04:03:40;2.13;;;1.80;;
19623;SDS011;9959;49.798;9.928;2023-11-19T04:06:16;1.63;;;1.45;;
19623;SDS011;9959;49.798;9.928;2023-11-19T04:08:43;1.83;;;1.63;;
19623;SDS011;9959;49.798;9.928;2023-11-19T04:11:11;1.50;;;1.40;;
19623;SDS011;9959;49.798;9.928;2023-11-19T04:13:37;1.40;;;1.30;;
19623;SDS011;9959;49.798;9.928;2023-11-19T04:16:04;1.23;;;1.10;;
19623;SDS011;9959;49.798;9.928;2023-11-19T04:18:32;1.60;;;1.20;;
19623;SDS011;9959;49.798;9.928;2023-11-19T04:20:59;2.03;;;1.42;;
19623;SDS011;9959;49.798;9.928;2023-11-19T04:23:26;1.50;;;1.40;;
19623;SDS011;9959;49.798;9.928;2023-11-19T04:25:52;1.50;;;1.40;;
19623;SDS011;9959;49.798;9.928;2023-11-19T04:28:19;1.30;;;1.20;;
19623;SDS011;9959;49.798;9.928;2023-11-19T04:30:46;1.33;;;1.23;;
19623;SDS011;9959;49.798;9.928;2023-11-19T04:33:13;1.02;;;0.90;;
19623;SDS011;9959;49.798;9.928;2023-11-19T04:35:41;1.33;;;1.00;;
19623;SDS011;9959;49.798;9.928;2023-11-19T04:38:08;1.27;;;1.02;;
19623;SDS011;9959;49.798;9.928;2023-11-19T04:40:35;1.73;;;1.27;;
19623;SDS011;9959;49.798;9.928;2023-11-19T04:43:02;1.63;;;1.50;;
19623;SDS011;9959;49.798;9.928;2023-11-19T04:45:29;1.95;;;1.33;;
19623;SDS011;9959;49.798;9.928;2023-11-19T04:47:56;1.50;;;1.30;;
19623;SDS011;9959;49.798;9.928;2023-11-19T04:50:23;0.98;;;0.93;;
19623;SDS011;9959;49.798;9.928;2023-11-19T04:52:52;1.30;;;1.10;;
19623;SDS011;9959;49.798;9.928;2023-11-19T04:55:22;1.20;;;1.10;;
19623;SDS011;9959;49.798;9.928;2023-11-19T04:57:49;1.30;;;1.20;;
19623;SDS011;9959;49.798;9.928;2023-11-19T05:00:16;1.10;;;1.00;;
19623;SDS011;9959;49.798;9.928;2023-11-19T05:02:43;1.45;;;1.13;;
19623;SDS011;9959;49.798;9.928;2023-11-19T05:05:10;1.60;;;1.40;;
19623;SDS011;9959;49.798;9.928;2023-11-19T05:07:38;1.23;;;1.13;;
19623;SDS011;9959;49.798;9.928;2023-11-19T05:10:05;5.63;;;1.52;;
19623;SDS011;9959;49.798;9.928;2023-11-19T05:12:32;1.30;;;1.20;;
19623;SDS011;9959;49.798;9.928;2023-11-19T05:15:00;3.67;;;1.95;;
19623;SDS011;9959;49.798;9.928;2023-11-19T05:17:27;2.22;;;1.50;;
19623;SDS011;9959;49.798;9.928;2023-11-19T05:19:54;1.40;;;1.27;;
19623;SDS011;9959;49.798;9.928;2023-11-19T05:22:21;2.33;;;1.38;;
19623;SDS011;9959;49.798;9.928;2023-11-19T05:24:48;1.30;;;1.20;;
19623;SDS011;9959;49.798;9.928;2023-11-19T05:27:16;2.83;;;1.30;;
19623;SDS011;9959;49.798;9.928;2023-11-19T05:29:42;1.80;;;1.50;;
19623;SDS011;9959;49.798;9.928;2023-11-19T05:32:10;3.13;;;1.40;;
19623;SDS011;9959;49.798;9.928;2023-11-19T05:34:38;2.05;;;1.60;;
19623;SDS011;9959;49.798;9.928;2023-11-19T05:37:17;2.10;;;1.48;;
19623;SDS011;9959;49.798;9.928;2023-11-19T05:39:45;2.10;;;1.60;;
19623;SDS011;9959;49.798;9.928;2023-11-19T05:42:12;1.80;;;1.60;;
19623;SDS011;9959;49.798;9.928;2023-11-19T05:44:39;1.70;;;1.30;;
19623;SDS011;9959;49.798;9.928;2023-11-19T05:47:07;1.85;;;1.40;;
19623;SDS011;9959;49.798;9.928;2023-11-19T05:49:34;1.63;;;1.52;;
19623;SDS011;9959;49.798;9.928;2023-11-19T05:52:05;4.22;;;1.30;;
19623;SDS011;9959;49.798;9.928;2023-11-19T05:54:34;1.50;;;1.40;;
19623;SDS011;9959;49.798;9.928;2023-11-19T05:57:04;2.15;;;1.50;;
19623;SDS011;9959;49.798;9.928;2023-11-19T05:59:31;2.25;;;1.48;;
19623;SDS011;9959;49.798;9.928;2023-11-19T06:01:59;1.42;;;1.30;;
19623;SDS011;9959;49.798;9.928;2023-11-19T06:04:26;1.58;;;1.23;;
19623;SDS011;9959;49.798;9.928;2023-11-19T06:06:53;1.20;;;1.10;;
19623;SDS011;9959;49.798;9.928;2023-11-19T06:09:21;1.48;;;1.10;;
19623;SDS011;9959;49.798;9.928;2023-11-19T06:11:50;2.03;;;1.23;;
19623;SDS011;9959;49.798;9.928;2023-11-19T06:14:18;1.23;;;1.13;;
19623;SDS011;9959;49.798;9.928;2023-11-19T06:16:46;2.58;;;1.20;;
19623;SDS011;9959;49.798;9.928;2023-11-19T06:19:13;1.75;;;1.45;;
19623;SDS011;9959;49.798;9.928;2023-11-19T06:21:40;1.98;;;1.52;;
19623;SDS011;9959;49.798;9.928;2023-11-19T06:24:07;1.92;;;1.42;;
19623;SDS011;9959;49.798;9.928;2023-11-19T06:26:35;1.70;;;1.45;;
19623;SDS011;9959;49.798;9.928;2023-11-19T06:29:02;2.05;;;1.80;;
19623;SDS011;9959;49.798;9.928;2023-11-19T06:31:29;3.50;;;2.00;;
19623;SDS011;9959;49.798;9.928;2023-11-19T06:33:56;1.60;;;1.50;;
19623;SDS011;9959;49.798;9.928;2023-11-19T06:36:23;2.53;;;1.70;;
19623;SDS011;9959;49.798;9.928;2023-11-19T06:38:50;3.67;;;1.70;;
19623;SDS011;9959;49.798;9.928;2023-11-19T06:41:16;2.90;;;1.75;;
19623;SDS011;9959;49.798;9.928;2023-11-19T06:43:46;2.30;;;1.98;;
19623;SDS011;9959;49.798;9.928;2023-11-19T06:46:16;3.92;;;1.92;;
19623;SDS011;9959;49.798;9.928;2023-11-19T06:48:44;2.55;;;2.00;;
19623;SDS011;9959;49.798;9.928;2023-11-19T06:51:12;4.80;;;2.10;;
19623;SDS011;9959;49.798;9.928;2023-11-19T06:53:39;3.22;;;2.10;;
19623;SDS011;9959;49.798;9.928;2023-11-19T06:56:22;2.95;;;2.13;;
19623;SDS011;9959;49.798;9.928;2023-11-19T06:58:50;2.97;;;2.10;;
19623;SDS011;9959;49.798;9.928;2023-11-19T07:01:18;5.38;;;2.10;;
19623;SDS011;9959;49.798;9.928;2023-11-19T07:03:46;2.92;;;2.30;;
19623;SDS011;9959;49.798;9.928;2023-11-19T07:06:14;3.95;;;2.00;;
19623;SDS011;9959;49.798;9.928;2023-11-19T07:08:41;2.90;;;1.80;;
19623;SDS011;9959;49.798;9.928;2023-11-19T07:11:14;2.35;;;1.90;;
19623;SDS011;9959;49.798;9.928;2023-11-19T07:13:43;3.00;;;2.22;;
19623;SDS011;9959;49.798;9.928;2023-11-19T07:16:10;4.25;;;2.47;;
19623;SDS011;9959;49.798;9.928;2023-11-19T07:18:37;2.28;;;1.70;;
19623;SDS011;9959;49.798;9.928;2023-11-19T07:21:04;2.90;;;2.40;;
19623;SDS011;9959;49.798;9.928;2023-11-19T07:23:31;4.63;;;2.42;;
19623;SDS011;9959;49.798;9.928;2023-11-19T07:25:59;2.30;;;1.80;;
19623;SDS011;9959;49.798;9.928;2023-11-19T07:28:26;3.20;;;1.88;;
19623;SDS011;9959;49.798;9.928;2023-11-19T07:30:55;2.22;;;1.80;;
19623;SDS011;9959;49.798;9.928;2023-11-19T07:33:25;1.92;;;1.65;;
19623;SDS011;9959;49.798;9.928;2023-11-19T07:35:52;2.70;;;1.92;;
19623;SDS011;9959;49.798;9.928;2023-11-19T07:38:19;4.20;;;1.80;;
19623;SDS011;9959;49.798;9.928;2023-11-19T07:40:46;2.03;;;1.70;;
19623;SDS011;9959;49.798;9.928;2023-11-19T07:43:17;1.85;;;1.58;;
19623;SDS011;9959;49.798;9.928;2023-11-19T07:45:44;2.42;;;1.70;;
19623;SDS011;9959;49.798;9.928;2023-11-19T07:48:12;2.70;;;1.50;;
19623;SDS011;9959;49.798;9.928;2023-11-19T07:50:40;2.38;;;2.10;;
19623;SDS011;9959;49.798;9.928;2023-11-19T07:53:10;2.90;;;1.33;;
19623;SDS011;9959;49.798;9.928;2023-11-19T07:55:39;1.88;;;1.70;;
19623;SDS011;9959;49.798;9.928;2023-11-19T07:58:08;1.65;;;1.55;;
19623;SDS011;9959;49.798;9.928;2023-11-19T08:00:35;1.85;;;1.60;;
19623;SDS011;9959;49.798;9.928;2023-11-19T08:03:01;2.75;;;2.00;;
19623;SDS011;9959;49.798;9.928;2023-11-19T08:05:29;3.03;;;1.77;;
19623;SDS011;9959;49.798;9.928;2023-11-19T08:07:57;2.42;;;1.80;;
19623;SDS011;9959;49.798;9.928;2023-11-19T08:10:24;4.47;;;1.70;;
19623;SDS011;9959;49.798;9.928;2023-11-19T08:12:51;2.03;;;1.45;;
19623;SDS011;9959;49.798;9.928;2023-11-19T08:15:18;3.35;;;2.10;;
19623;SDS011;9959;49.798;9.928;2023-11-19T08:17:57;2.10;;;1.90;;
19623;SDS011;9959;49.798;9.928;2023-11-19T08:20:24;4.82;;;2.83;;
19623;SDS011;9959;49.798;9.928;2023-11-19T08:22:52;3.30;;;2.15;;
19623;SDS011;9959;49.798;9.928;2023-11-19T08:25:19;4.88;;;2.80;;
19623;SDS011;9959;49.798;9.928;2023-11-19T08:27:46;3.05;;;2.25;;
19623;SDS011;9959;49.798;9.928;2023-11-19T08:30:13;2.90;;;1.90;;
19623;SDS011;9959;49.798;9.928;2023-11-19T08:32:40;3.22;;;1.90;;
19623;SDS011;9959;49.798;9.928;2023-11-19T08:35:08;2.25;;;2.00;;
19623;SDS011;9959;49.798;9.928;2023-11-19T08:37:35;3.03;;;1.52;;
19623;SDS011;9959;49.798;9.928;2023-11-19T08:40:03;2.28;;;1.50;;
19623;SDS011;9959;49.798;9.928;2023-11-19T08:42:31;2.35;;;1.48;;
19623;SDS011;9959;49.798;9.928;2023-11-19T08:44:58;3.72;;;2.20;;
19623;SDS011;9959;49.798;9.928;2023-11-19T08:47:27;2.63;;;2.00;;
19623;SDS011;9959;49.798;9.928;2023-11-19T08:49:54;3.13;;;1.90;;
19623;SDS011;9959;49.798;9.928;2023-11-19T08:52:24;2.28;;;2.08;;
19623;SDS011;9959;49.798;9.928;2023-11-19T08:54:51;6.57;;;2.67;;
19623;SDS011;9959;49.798;9.928;2023-11-19T08:57:18;3.15;;;2.75;;
19623;SDS011;9959;49.798;9.928;2023-11-19T08:59:46;3.97;;;2.60;;
19623;SDS011;9959;49.798;9.928;2023-11-19T09:02:13;4.45;;;3.10;;
19623;SDS011;9959;49.798;9.928;2023-11-19T09:04:40;3.47;;;2.63;;
19623;SDS011;9959;49.798;9.928;2023-11-19T09:07:07;4.95;;;3.00;;
19623;SDS011;9959;49.798;9.928;2023-11-19T09:09:36;4.00;;;2.33;;
19623;SDS011;9959;49.798;9.928;2023-11-19T09:12:03;4.55;;;2.45;;
19623;SDS011;9959;49.798;9.928;2023-11-19T09:14:30;5.40;;;2.35;;
19623;SDS011;9959;49.798;9.928;2023-11-19T09:16:57;5.00;;;2.10;;
19623;SDS011;9959;49.798;9.928;2023-11-19T09:19:24;4.50;;;2.20;;
19623;SDS011;9959;49.798;9.928;2023-11-19T09:21:53;3.05;;;2.03;;
19623;SDS011;9959;49.798;9.928;2023-11-19T09:24:21;4.80;;;2.30;;
19623;SDS011;9959;49.798;9.928;2023-11-19T09:26:48;4.53;;;2.10;;
19623;SDS011;9959;49.798;9.928;2023-11-19T09:29:15;4.40;;;1.88;;
19623;SDS011;9959;49.798;9.928;2023-11-19T09:31:43;4.97;;;2.00;;
19623;SDS011;9959;49.798;9.928;2023-11-19T09:34:10;2.22;;;1.40;;
19623;SDS011;9959;49.798;9.928;2023-11-19T09:36:37;5.03;;;1.80;;
19623;SDS011;9959;49.798;9.928;2023-11-19T09:39:04;4.55;;;1.75;;
19623;SDS011;9959;49.798;9.928;2023-11-19T09:41:34;3.85;;;2.00;;
19623;SDS011;9959;49.798;9.928;2023-11-19T09:44:01;3.75;;;1.45;;
19623;SDS011;9959;49.798;9.928;2023-11-19T09:46:28;2.72;;;1.70;;
19623;SDS011;9959;49.798;9.928;2023-11-19T09:48:56;3.88;;;1.65;;
19623;SDS011;9959;49.798;9.928;2023-11-19T09:51:26;4.53;;;1.75;;
19623;SDS011;9959;49.798;9.928;2023-11-19T09:53:53;4.07;;;1.63;;
19623;SDS011;9959;49.798;9.928;2023-11-19T09:56:20;3.72;;;1.70;;
19623;SDS011;9959;49.798;9.928;2023-11-19T09:58:48;2.75;;;1.48;;
19623;SDS011;9959;49.798;9.928;2023-11-19T10:01:18;4.03;;;1.60;;
19623;SDS011;9959;49.798;9.928;2023-11-19T10:03:54;5.85;;;1.92;;
19623;SDS011;9959;49.798;9.928;2023-11-19T10:06:22;3.17;;;1.65;;
19623;SDS011;9959;49.798;9.928;2023-11-19T10:08:53;3.03;;;1.63;;
19623;SDS011;9959;49.798;9.928;2023-11-19T10:11:25;3.30;;;1.83;;
19623;SDS011;9959;49.798;9.928;2023-11-19T10:13:53;4.70;;;1.90;;
19623;SDS011;9959;49.798;9.928;2023-11-19T10:16:20;6.57;;;1.38;;
19623;SDS011;9959;49.798;9.928;2023-11-19T10:18:47;5.28;;;1.60;;
19623;SDS011;9959;49.798;9.928;2023-11-19T10:21:17;4.70;;;1.60;;
19623;SDS011;9959;49.798;9.928;2023-11-19T10:23:48;3.00;;;1.60;;
19623;SDS011;9959;49.798;9.928;2023-11-19T10:26:20;7.00;;;1.52;;
19623;SDS011;9959;49.798;9.928;2023-11-19T10:28:47;7.68;;;1.90;;
19623;SDS011;9959;49.798;9.928;2023-11-19T10:31:15;3.28;;;1.40;;
19623;SDS011;9959;49.798;9.928;2023-11-19T10:33:47;7.20;;;1.75;;
19623;SDS011;9959;49.798;9.928;2023-11-19T10:36:16;4.60;;;1.45;;
19623;SDS011;9959;49.798;9.928;2023-11-19T10:38:53;5.78;;;1.65;;
19623;SDS011;9959;49.798;9.928;2023-11-19T10:41:30;1.95;;;1.30;;
19623;SDS011;9959;49.798;9.928;2023-11-19T10:43:58;1.92;;;1.15;;
19623;SDS011;9959;49.798;9.928;2023-11-19T10:46:38;3.47;;;1.30;;
19623;SDS011;9959;49.798;9.928;2023-11-19T10:49:07;3.33;;;1.40;;
19623;SDS011;9959;49.798;9.928;2023-11-19T10:51:35;1.92;;;1.30;;
19623;SDS011;9959;49.798;9.928;2023-11-19T10:54:03;1.33;;;1.20;;
19623;SDS011;9959;49.798;9.928;2023-11-19T10:56:32;5.70;;;1.55;;
19623;SDS011;9959;49.798;9.928;2023-11-19T10:59:01;4.43;;;1.60;;
19623;SDS011;9959;49.798;9.928;2023-11-19T11:01:48;6.03;;;1.33;;
19623;SDS011;9959;49.798;9.928;2023-11-19T11:04:23;2.67;;;1.50;;
19623;SDS011;9959;49.798;9.928;2023-11-19T11:06:54;3.33;;;1.50;;
19623;SDS011;9959;49.798;9.928;2023-11-19T11:09:28;3.28;;;1.55;;
19623;SDS011;9959;49.798;9.928;2023-11-19T11:11:56;5.13;;;1.58;;
19623;SDS011;9959;49.798;9.928;2023-11-19T11:14:25;2.70;;;1.50;;
19623;SDS011;9959;49.798;9.928;2023-11-19T11:16:53;6.55;;;1.83;;
19623;SDS011;9959;49.798;9.928;2023-11-19T11:19:24;5.07;;;1.80;;
19623;SDS011;9959;49.798;9.928;2023-11-19T11:21:53;4.78;;;2.40;;
19623;SDS011;9959;49.798;9.928;2023-11-19T11:24:34;4.00;;;1.70;;
19623;SDS011;9959;49.798;9.928;2023-11-19T11:27:40;6.53;;;2.85;;
19623;SDS011;9959;49.798;9.928;2023-11-19T11:33:05;2.25;;;1.50;;
19623;SDS011;9959;49.798;9.928;2023-11-19T11:38:40;5.18;;;1.65;;
19623;SDS011;9959;49.798;9.928;2023-11-19T11:41:23;4.18;;;1.70;;
19623;SDS011;9959;49.798;9.928;2023-11-19T11:43:55;2.67;;;1.38;;
19623;SDS011;9959;49.798;9.928;2023-11-19T11:49:02;4.32;;;1.30;;
19623;SDS011;9959;49.798;9.928;2023-11-19T11:59:46;5.88;;;1.75;;
19623;SDS011;9959;49.798;9.928;2023-11-19T12:02:17;3.88;;;2.00;;
19623;SDS011;9959;49.798;9.928;2023-11-19T12:04:51;3.00;;;1.60;;
19623;SDS011;9959;49.798;9.928;2023-11-19T12:07:23;6.13;;;1.40;;
19623;SDS011;9959;49.798;9.928;2023-11-19T12:09:52;3.25;;;1.35;;
19623;SDS011;9959;49.798;9.928;2023-11-19T12:12:23;6.68;;;1.65;;
19623;SDS011;9959;49.798;9.928;2023-11-19T12:20:03;2.75;;;1.40;;
19623;SDS011;9959;49.798;9.928;2023-11-19T12:22:36;4.40;;;1.60;;
19623;SDS011;9959;49.798;9.928;2023-11-19T12:25:08;4.70;;;1.45;;
19623;SDS011;9959;49.798;9.928;2023-11-19T12:27:48;6.32;;;2.33;;
19623;SDS011;9959;49.798;9.928;2023-11-19T12:30:17;3.35;;;1.60;;
19623;SDS011;9959;49.798;9.928;2023-11-19T12:32:52;3.53;;;1.77;;
19623;SDS011;9959;49.798;9.928;2023-11-19T12:35:21;2.70;;;1.20;;
19623;SDS011;9959;49.798;9.928;2023-11-19T12:37:49;5.78;;;1.63;;
19623;SDS011;9959;49.798;9.928;2023-11-19T12:40:18;5.65;;;1.30;;
19623;SDS011;9959;49.798;9.928;2023-11-19T12:42:51;4.28;;;1.75;;
19623;SDS011;9959;49.798;9.928;2023-11-19T12:45:22;4.47;;;1.65;;
19623;SDS011;9959;49.798;9.928;2023-11-19T12:48:03;3.80;;;1.73;;
19623;SDS011;9959;49.798;9.928;2023-11-19T12:53:17;3.40;;;1.42;;
19623;SDS011;9959;49.798;9.928;2023-11-19T12:55:44;2.75;;;1.50;;
19623;SDS011;9959;49.798;9.928;2023-11-19T12:58:27;3.42;;;1.58;;
19623;SDS011;9959;49.798;9.928;2023-11-19T13:01:04;5.45;;;1.95;;
19623;SDS011;9959;49.798;9.928;2023-11-19T13:03:36;3.47;;;1.60;;
19623;SDS011;9959;49.798;9.928;2023-11-19T13:06:06;3.83;;;1.70;;
19623;SDS011;9959;49.798;9.928;2023-11-19T13:11:06;2.85;;;1.48;;
19623;SDS011;9959;49.798;9.928;2023-11-19T13:13:53;3.78;;;1.60;;
19623;SDS011;9959;49.798;9.928;2023-11-19T13:16:23;7.07;;;1.77;;
19623;SDS011;9959;49.798;9.928;2023-11-19T13:18:50;4.95;;;1.60;;
19623;SDS011;9959;49.798;9.928;2023-11-19T13:21:18;5.75;;;1.50;;
19623;SDS011;9959;49.798;9.928;2023-11-19T13:23:45;4.90;;;1.67;;
19623;SDS011;9959;49.798;9.928;2023-11-19T13:26:12;4.32;;;1.50;;
19623;SDS011;9959;49.798;9.928;2023-11-19T13:28:39;6.03;;;1.50;;
19623;SDS011;9959;49.798;9.928;2023-11-19T13:31:06;4.85;;;1.63;;
19623;SDS011;9959;49.798;9.928;2023-11-19T13:33:34;2.70;;;2.00;;
19623;SDS011;9959;49.798;9.928;2023-11-19T13:36:01;3.22;;;1.50;;
19623;SDS011;9959;49.798;9.928;2023-11-19T13:38:32;2.00;;;1.40;;
19623;SDS011;9959;49.798;9.928;2023-11-19T13:41:02;3.58;;;1.30;;
19623;SDS011;9959;49.798;9.928;2023-11-19T13:43:31;4.47;;;1.65;;
19623;SDS011;9959;49.798;9.928;2023-11-19T13:45:58;4.55;;;1.52;;
19623;SDS011;9959;49.798;9.928;2023-11-19T13:48:25;6.22;;;1.50;;
19623;SDS011;9959;49.798;9.928;2023-11-19T13:50:54;5.60;;;1.35;;
19623;SDS011;9959;49.798;9.928;2023-11-19T13:53:23;8.35;;;1.58;;
19623;SDS011;9959;49.798;9.928;2023-11-19T13:55:50;3.17;;;1.52;;
19623;SDS011;9959;49.798;9.928;2023-11-19T13:58:17;2.97;;;1.30;;
19623;SDS011;9959;49.798;9.928;2023-11-19T14:00:44;11.73;;;1.55;;
19623;SDS011;9959;49.798;9.928;2023-11-19T14:03:11;4.50;;;1.08;;
19623;SDS011;9959;49.798;9.928;2023-11-19T14:05:39;3.88;;;1.23;;
19623;SDS011;9959;49.798;9.928;2023-11-19T14:08:07;4.38;;;1.60;;
19623;SDS011;9959;49.798;9.928;2023-11-19T14:10:51;6.57;;;1.40;;
19623;SDS011;9959;49.798;9.928;2023-11-19T14:13:18;5.30;;;1.58;;
19623;SDS011;9959;49.798;9.928;2023-11-19T14:15:45;6.28;;;1.45;;
19623;SDS011;9959;49.798;9.928;2023-11-19T14:18:15;8.75;;;1.83;;
19623;SDS011;9959;49.798;9.928;2023-11-19T14:20:42;4.35;;;1.30;;
19623;SDS011;9959;49.798;9.928;2023-11-19T14:23:10;5.00;;;1.45;;
19623;SDS011;9959;49.798;9.928;2023-11-19T14:25:37;5.97;;;1.60;;
19623;SDS011;9959;49.798;9.928;2023-11-19T14:28:04;7.82;;;1.83;;
19623;SDS011;9959;49.798;9.928;2023-11-19T14:30:32;5.20;;;1.73;;
19623;SDS011;9959;49.798;9.928;2023-11-19T14:33:01;6.07;;;1.48;;
19623;SDS011;9959;49.798;9.928;2023-11-19T14:35:28;7.78;;;2.47;;
19623;SDS011;9959;49.798;9.928;2023-11-19T14:37:57;6.22;;;1.50;;
19623;SDS011;9959;49.798;9.928;2023-11-19T14:40:24;8.88;;;2.20;;
19623;SDS011;9959;49.798;9.928;2023-11-19T14:42:54;6.43;;;1.63;;
19623;SDS011;9959;49.798;9.928;2023-11-19T14:45:21;3.17;;;1.45;;
19623;SDS011;9959;49.798;9.928;2023-11-19T14:47:49;5.95;;;1.73;;
19623;SDS011;9959;49.798;9.928;2023-11-19T14:50:16;3.15;;;1.33;;
19623;SDS011;9959;49.798;9.928;2023-11-19T14:52:43;9.50;;;1.65;;
19623;SDS011;9959;49.798;9.928;2023-11-19T14:55:09;5.97;;;1.60;;
19623;SDS011;9959;49.798;9.928;2023-11-19T14:57:38;3.53;;;1.58;;
19623;SDS011;9959;49.798;9.928;2023-11-19T15:00:06;9.52;;;1.60;;
19623;SDS011;9959;49.798;9.928;2023-11-19T15:02:40;6.72;;;1.63;;
19623;SDS011;9959;49.798;9.928;2023-11-19T15:05:08;9.35;;;1.65;;
19623;SDS011;9959;49.798;9.928;2023-11-19T15:07:39;5.32;;;1.50;;
19623;SDS011;9959;49.798;9.928;2023-11-19T15:10:06;8.40;;;1.60;;
19623;SDS011;9959;49.798;9.928;2023-11-19T15:12:37;5.35;;;1.92;;
19623;SDS011;9959;49.798;9.928;2023-11-19T15:15:07;7.22;;;2.15;;
19623;SDS011;9959;49.798;9.928;2023-11-19T15:17:41;7.57;;;1.40;;
19623;SDS011;9959;49.798;9.928;2023-11-19T15:20:08;6.70;;;1.50;;
19623;SDS011;9959;49.798;9.928;2023-11-19T15:22:35;6.93;;;1.55;;
19623;SDS011;9959;49.798;9.928;2023-11-19T15:25:02;4.70;;;1.40;;
19623;SDS011;9959;49.798;9.928;2023-11-19T15:27:29;4.97;;;1.55;;
19623;SDS011;9959;49.798;9.928;2023-11-19T15:29:56;7.18;;;1.40;;
19623;SDS011;9959;49.798;9.928;2023-11-19T15:32:23;8.38;;;1.55;;
19623;SDS011;9959;49.798;9.928;2023-11-19T15:34:50;7.65;;;1.48;;